sensor_id;sensor_type;location;lat;lon;timestamp;pressure;altitude;pressure_sealevel;temperature;humidity
44457;BME280;30159;49.316;8.558;2023-04-19T00:01:59;101084.25;;;11.61;96.67
44457;BME280;30159;49.316;8.558;2023-04-19T00:04:26;101083.97;;;11.52;97.28
44457;BME280;30159;49.316;8.558;2023-04-19T00:06:55;101072.63;;;11.55;97.55
44457;BME280;30159;49.316;8.558;2023-04-19T00:09:22;101083.16;;;11.67;96.88
44457;BME280;30159;49.316;8.558;2023-04-19T00:11:49;101076.94;;;11.67;96.56
44457;BME280;30159;49.316;8.558;2023-04-19T00:14:15;101079.91;;;11.60;96.46
44457;BME280;30159;49.316;8.558;2023-04-19T00:16:42;101067.75;;;11.57;96.85
44457;BME280;30159;49.316;8.558;2023-04-19T00:19:08;101079.91;;;11.55;97.03
44457;BME280;30159;49.316;8.558;2023-04-19T00:21:35;101073.97;;;11.53;97.22
44457;BME280;30159;49.316;8.558;2023-04-19T00:24:04;101027.22;;;11.22;97.86
44457;BME280;30159;49.316;8.558;2023-04-19T00:26:31;101076.13;;;11.51;98.33
44457;BME280;30159;49.316;8.558;2023-04-19T00:28:57;101068.81;;;11.46;97.73
44457;BME280;30159;49.316;8.558;2023-04-19T00:31:24;101064.50;;;11.40;98.37
44457;BME280;30159;49.316;8.558;2023-04-19T00:33:51;101069.91;;;11.45;98.30
44457;BME280;30159;49.316;8.558;2023-04-19T00:36:17;101062.88;;;11.39;97.93
44457;BME280;30159;49.316;8.558;2023-04-19T00:38:44;101070.97;;;11.34;98.54
44457;BME280;30159;49.316;8.558;2023-04-19T00:41:12;101069.38;;;11.43;98.39
44457;BME280;30159;49.316;8.558;2023-04-19T00:43:38;101062.31;;;11.32;98.68
44457;BME280;30159;49.316;8.558;2023-04-19T00:46:05;101055.31;;;11.31;98.99
44457;BME280;30159;49.316;8.558;2023-04-19T00:48:33;101059.38;;;11.38;99.01
44457;BME280;30159;49.316;8.558;2023-04-19T00:51:00;101060.16;;;11.34;98.51
44457;BME280;30159;49.316;8.558;2023-04-19T00:53:27;101062.31;;;11.32;99.03
44457;BME280;30159;49.316;8.558;2023-04-19T00:55:54;101059.91;;;11.41;98.54
44457;BME280;30159;49.316;8.558;2023-04-19T00:58:24;101060.16;;;11.44;97.99
44457;BME280;30159;49.316;8.558;2023-04-19T01:00:52;101053.16;;;11.53;97.92
44457;BME280;30159;49.316;8.558;2023-04-19T01:03:19;101039.91;;;11.31;98.48
44457;BME280;30159;49.316;8.558;2023-04-19T01:05:46;101052.63;;;11.36;98.59
44457;BME280;30159;49.316;8.558;2023-04-19T01:08:13;101024.50;;;11.22;98.30
44457;BME280;30159;49.316;8.558;2023-04-19T01:10:40;101048.00;;;11.31;98.83
44457;BME280;30159;49.316;8.558;2023-04-19T01:13:06;101048.28;;;11.30;99.00
44457;BME280;30159;49.316;8.558;2023-04-19T01:15:34;100999.06;;;10.97;98.97
44457;BME280;30159;49.316;8.558;2023-04-19T01:18:01;101047.47;;;11.29;100.00
44457;BME280;30159;49.316;8.558;2023-04-19T01:20:28;101043.72;;;11.41;98.68
44457;BME280;30159;49.316;8.558;2023-04-19T01:22:56;101042.88;;;11.30;98.70
44457;BME280;30159;49.316;8.558;2023-04-19T01:25:22;101042.88;;;11.35;98.53
44457;BME280;30159;49.316;8.558;2023-04-19T01:27:49;101025.88;;;11.19;98.82
44457;BME280;30159;49.316;8.558;2023-04-19T01:30:15;101042.31;;;11.23;99.01
44457;BME280;30159;49.316;8.558;2023-04-19T01:32:42;101036.38;;;11.26;99.24
44457;BME280;30159;49.316;8.558;2023-04-19T01:35:08;100998.28;;;11.02;98.83
44457;BME280;30159;49.316;8.558;2023-04-19T01:37:36;101035.56;;;11.25;98.79
44457;BME280;30159;49.316;8.558;2023-04-19T01:40:05;101044.50;;;11.36;98.34
44457;BME280;30159;49.316;8.558;2023-04-19T01:42:32;101038.00;;;11.42;97.76
44457;BME280;30159;49.316;8.558;2023-04-19T01:44:58;101024.00;;;11.45;97.95
44457;BME280;30159;49.316;8.558;2023-04-19T01:47:24;101020.19;;;11.46;96.90
44457;BME280;30159;49.316;8.558;2023-04-19T01:49:51;101021.56;;;11.44;97.80
44457;BME280;30159;49.316;8.558;2023-04-19T01:52:17;101026.16;;;11.38;97.53
44457;BME280;30159;49.316;8.558;2023-04-19T01:54:44;101021.56;;;11.38;97.53
44457;BME280;30159;49.316;8.558;2023-04-19T01:57:12;101024.50;;;11.37;97.77
44457;BME280;30159;49.316;8.558;2023-04-19T01:59:40;101025.59;;;11.31;97.75
44457;BME280;30159;49.316;8.558;2023-04-19T02:02:07;101022.88;;;11.26;97.68
44457;BME280;30159;49.316;8.558;2023-04-19T02:04:33;101020.19;;;11.36;97.59
44457;BME280;30159;49.316;8.558;2023-04-19T02:07:00;101025.34;;;11.43;97.35
44457;BME280;30159;49.316;8.558;2023-04-19T02:09:26;101021.03;;;11.52;96.89
44457;BME280;30159;49.316;8.558;2023-04-19T02:11:53;100970.25;;;11.33;96.21
44457;BME280;30159;49.316;8.558;2023-04-19T02:14:20;101014.25;;;11.70;95.65
44457;BME280;30159;49.316;8.558;2023-04-19T02:16:47;101011.00;;;11.63;94.94
44457;BME280;30159;49.316;8.558;2023-04-19T02:19:14;101007.78;;;11.45;95.43
44457;BME280;30159;49.316;8.558;2023-04-19T02:21:40;101007.22;;;11.53;95.50
44457;BME280;30159;49.316;8.558;2023-04-19T02:24:07;101005.91;;;11.61;95.43
44457;BME280;30159;49.316;8.558;2023-04-19T02:26:33;101000.22;;;11.73;95.84
44457;BME280;30159;49.316;8.558;2023-04-19T02:29:00;100996.41;;;11.79;96.01
44457;BME280;30159;49.316;8.558;2023-04-19T02:31:28;100995.34;;;11.90;95.11
44457;BME280;30159;49.316;8.558;2023-04-19T02:33:54;101003.69;;;11.84;93.38
44457;BME280;30159;49.316;8.558;2023-04-19T02:36:21;100964.03;;;11.43;94.39
44457;BME280;30159;49.316;8.558;2023-04-19T02:38:47;100941.88;;;11.26;94.33
44457;BME280;30159;49.316;8.558;2023-04-19T02:41:14;100981.03;;;11.33;95.15
44457;BME280;30159;49.316;8.558;2023-04-19T02:43:41;100998.59;;;11.46;96.19
44457;BME280;30159;49.316;8.558;2023-04-19T02:46:08;101002.38;;;11.55;95.23
44457;BME280;30159;49.316;8.558;2023-04-19T02:48:36;100996.97;;;11.45;95.17
44457;BME280;30159;49.316;8.558;2023-04-19T02:51:03;100987.25;;;11.59;94.97
44457;BME280;30159;49.316;8.558;2023-04-19T02:53:29;100995.88;;;11.72;94.76
44457;BME280;30159;49.316;8.558;2023-04-19T02:55:56;100994.78;;;11.83;93.84
44457;BME280;30159;49.316;8.558;2023-04-19T02:58:22;100993.44;;;11.91;94.31
44457;BME280;30159;49.316;8.558;2023-04-19T03:00:49;100990.19;;;11.89;92.61
44457;BME280;30159;49.316;8.558;2023-04-19T03:03:16;100989.38;;;11.98;92.21
44457;BME280;30159;49.316;8.558;2023-04-19T03:05:43;100988.28;;;11.99;92.44
44457;BME280;30159;49.316;8.558;2023-04-19T03:08:10;100996.13;;;12.01;92.08
44457;BME280;30159;49.316;8.558;2023-04-19T03:10:37;100982.34;;;11.97;91.51
44457;BME280;30159;49.316;8.558;2023-04-19T03:13:03;100985.06;;;11.92;91.43
44457;BME280;30159;49.316;8.558;2023-04-19T03:15:30;100981.81;;;11.90;92.39
44457;BME280;30159;49.316;8.558;2023-04-19T03:17:56;100974.50;;;11.91;93.98
44457;BME280;30159;49.316;8.558;2023-04-19T03:20:23;100983.16;;;11.82;93.30
44457;BME280;30159;49.316;8.558;2023-04-19T03:22:51;100974.25;;;11.82;92.16
44457;BME280;30159;49.316;8.558;2023-04-19T03:25:18;100978.81;;;11.81;93.40
44457;BME280;30159;49.316;8.558;2023-04-19T03:27:44;100969.94;;;11.76;92.91
44457;BME280;30159;49.316;8.558;2023-04-19T03:30:12;100945.66;;;11.45;93.00
44457;BME280;30159;49.316;8.558;2023-04-19T03:32:39;100981.84;;;11.59;94.22
44457;BME280;30159;49.316;8.558;2023-04-19T03:35:06;100964.28;;;11.52;93.96
44457;BME280;30159;49.316;8.558;2023-04-19T03:37:32;100975.09;;;11.52;95.50
44457;BME280;30159;49.316;8.558;2023-04-19T03:40:00;100971.06;;;11.49;95.69
44457;BME280;30159;49.316;8.558;2023-04-19T03:42:27;100939.72;;;11.23;95.36
44457;BME280;30159;49.316;8.558;2023-04-19T03:44:53;100957.00;;;11.47;95.22
44457;BME280;30159;49.316;8.558;2023-04-19T03:47:20;100959.16;;;11.55;95.42
44457;BME280;30159;49.316;8.558;2023-04-19T03:49:47;100960.25;;;11.49;94.96
44457;BME280;30159;49.316;8.558;2023-04-19T03:52:13;100953.75;;;11.35;95.21
44457;BME280;30159;49.316;8.558;2023-04-19T03:54:40;100947.53;;;11.39;94.86
44457;BME280;30159;49.316;8.558;2023-04-19T03:57:08;100952.16;;;11.24;95.23
44457;BME280;30159;49.316;8.558;2023-04-19T03:59:37;100946.75;;;11.24;95.86
44457;BME280;30159;49.316;8.558;2023-04-19T04:02:04;100941.88;;;11.26;96.01
44457;BME280;30159;49.316;8.558;2023-04-19T04:04:31;100945.09;;;11.28;96.19
44457;BME280;30159;49.316;8.558;2023-04-19T04:06:57;100900.00;;;10.97;95.89
44457;BME280;30159;49.316;8.558;2023-04-19T04:09:24;100938.66;;;11.24;95.90
44457;BME280;30159;49.316;8.558;2023-04-19T04:11:51;100946.75;;;11.29;96.37
44457;BME280;30159;49.316;8.558;2023-04-19T04:14:19;100944.03;;;11.34;95.83
44457;BME280;30159;49.316;8.558;2023-04-19T04:16:45;100945.13;;;11.33;95.04
44457;BME280;30159;49.316;8.558;2023-04-19T04:19:12;100940.81;;;11.16;95.56
44457;BME280;30159;49.316;8.558;2023-04-19T04:21:38;100952.66;;;11.21;96.29
44457;BME280;30159;49.316;8.558;2023-04-19T04:24:05;100939.97;;;11.16;96.22
44457;BME280;30159;49.316;8.558;2023-04-19T04:26:32;100953.22;;;11.17;96.54
44457;BME280;30159;49.316;8.558;2023-04-19T04:28:59;100945.63;;;11.09;97.52
44457;BME280;30159;49.316;8.558;2023-04-19T04:31:28;100956.97;;;11.11;97.71
44457;BME280;30159;49.316;8.558;2023-04-19T04:33:55;100953.47;;;11.11;98.22
44457;BME280;30159;49.316;8.558;2023-04-19T04:36:22;100957.78;;;11.07;97.42
44457;BME280;30159;49.316;8.558;2023-04-19T04:38:50;100957.53;;;11.03;97.12
44457;BME280;30159;49.316;8.558;2023-04-19T04:41:16;100956.44;;;10.99;98.41
44457;BME280;30159;49.316;8.558;2023-04-19T04:43:45;100957.25;;;10.94;97.79
44457;BME280;30159;49.316;8.558;2023-04-19T04:46:15;100959.94;;;10.94;97.61
44457;BME280;30159;49.316;8.558;2023-04-19T04:48:43;100957.53;;;11.03;97.62
44457;BME280;30159;49.316;8.558;2023-04-19T04:51:10;100958.06;;;11.10;97.32
44457;BME280;30159;49.316;8.558;2023-04-19T04:53:36;100959.16;;;11.14;96.68
44457;BME280;30159;49.316;8.558;2023-04-19T04:56:03;100959.72;;;11.22;96.26
44457;BME280;30159;49.316;8.558;2023-04-19T04:58:30;100959.16;;;11.25;96.13
44457;BME280;30159;49.316;8.558;2023-04-19T05:00:56;100961.03;;;11.39;96.02
44457;BME280;30159;49.316;8.558;2023-04-19T05:03:23;100963.19;;;11.58;94.58
44457;BME280;30159;49.316;8.558;2023-04-19T05:05:50;100966.41;;;11.91;92.62
44457;BME280;30159;49.316;8.558;2023-04-19T05:08:17;100964.13;;;12.23;89.49
44457;BME280;30159;49.316;8.558;2023-04-19T05:10:44;100949.16;;;12.52;88.47
44457;BME280;30159;49.316;8.558;2023-04-19T05:13:10;100956.34;;;13.11;85.14
44457;BME280;30159;49.316;8.558;2023-04-19T05:15:37;100959.44;;;13.39;81.66
44457;BME280;30159;49.316;8.558;2023-04-19T05:18:04;100958.13;;;13.26;81.28
44457;BME280;30159;49.316;8.558;2023-04-19T05:20:31;100958.13;;;12.92;82.91
44457;BME280;30159;49.316;8.558;2023-04-19T05:23:00;100966.84;;;12.83;81.68
44457;BME280;30159;49.316;8.558;2023-04-19T05:25:28;100921.41;;;12.26;83.30
44457;BME280;30159;49.316;8.558;2023-04-19T05:27:54;100965.50;;;12.81;83.43
44457;BME280;30159;49.316;8.558;2023-04-19T05:30:22;100965.28;;;13.12;82.83
44457;BME280;30159;49.316;8.558;2023-04-19T05:32:48;100963.03;;;13.29;79.85
44457;BME280;30159;49.316;8.558;2023-04-19T05:35:16;100975.75;;;13.23;79.96
44457;BME280;30159;49.316;8.558;2023-04-19T05:37:43;100970.75;;;13.46;79.86
44457;BME280;30159;49.316;8.558;2023-04-19T05:40:11;100968.50;;;13.53;78.27
44457;BME280;30159;49.316;8.558;2023-04-19T05:42:38;100960.94;;;13.16;79.34
44457;BME280;30159;49.316;8.558;2023-04-19T05:45:05;100958.94;;;12.92;80.29
44457;BME280;30159;49.316;8.558;2023-04-19T05:47:32;100954.56;;;12.52;82.83
44457;BME280;30159;49.316;8.558;2023-04-19T05:49:58;100964.13;;;12.34;85.34
44457;BME280;30159;49.316;8.558;2023-04-19T05:52:25;100959.13;;;12.56;85.20
44457;BME280;30159;49.316;8.558;2023-04-19T05:54:52;100953.97;;;13.04;82.22
44457;BME280;30159;49.316;8.558;2023-04-19T05:57:19;100959.16;;;13.01;82.22
44457;BME280;30159;49.316;8.558;2023-04-19T05:59:46;100958.66;;;13.62;78.90
44457;BME280;30159;49.316;8.558;2023-04-19T06:02:13;100958.63;;;13.91;77.31
44457;BME280;30159;49.316;8.558;2023-04-19T06:04:40;100956.88;;;14.06;76.22
44457;BME280;30159;49.316;8.558;2023-04-19T06:07:06;100963.97;;;13.73;77.84
44457;BME280;30159;49.316;8.558;2023-04-19T06:09:33;100960.00;;;13.89;77.78
44457;BME280;30159;49.316;8.558;2023-04-19T06:11:59;100967.19;;;13.51;78.21
44457;BME280;30159;49.316;8.558;2023-04-19T06:14:27;100963.69;;;13.74;78.02
44457;BME280;30159;49.316;8.558;2023-04-19T06:16:54;100964.09;;;13.28;79.96
44457;BME280;30159;49.316;8.558;2023-04-19T06:19:21;100974.47;;;13.55;79.69
44457;BME280;30159;49.316;8.558;2023-04-19T06:21:47;100966.53;;;13.30;81.37
44457;BME280;30159;49.316;8.558;2023-04-19T06:24:14;100969.91;;;13.11;82.16
44457;BME280;30159;49.316;8.558;2023-04-19T06:26:41;100968.28;;;12.71;86.41
44457;BME280;30159;49.316;8.558;2023-04-19T06:29:07;100969.25;;;12.40;87.96
44457;BME280;30159;49.316;8.558;2023-04-19T06:31:35;100980.16;;;12.15;90.29
44457;BME280;30159;49.316;8.558;2023-04-19T06:34:02;100969.38;;;11.94;91.88
44457;BME280;30159;49.316;8.558;2023-04-19T06:36:28;100973.97;;;11.99;93.12
44457;BME280;30159;49.316;8.558;2023-04-19T06:38:55;100981.25;;;12.09;92.93
44457;BME280;30159;49.316;8.558;2023-04-19T06:41:21;100974.72;;;12.10;92.88
44457;BME280;30159;49.316;8.558;2023-04-19T06:43:48;100930.44;;;11.85;93.26
44457;BME280;30159;49.316;8.558;2023-04-19T06:46:14;100975.81;;;12.14;93.21
44457;BME280;30159;49.316;8.558;2023-04-19T06:48:42;100981.19;;;12.24;92.70
44457;BME280;30159;49.316;8.558;2023-04-19T06:51:09;100973.06;;;12.29;92.40
44457;BME280;30159;49.316;8.558;2023-04-19T06:53:35;100972.00;;;12.25;92.95
44457;BME280;30159;49.316;8.558;2023-04-19T06:56:03;100964.34;;;12.37;92.39
44457;BME280;30159;49.316;8.558;2023-04-19T06:58:30;100964.34;;;12.48;91.03
44457;BME280;30159;49.316;8.558;2023-04-19T07:00:57;100962.66;;;12.57;90.95
44457;BME280;30159;49.316;8.558;2023-04-19T07:03:24;100922.66;;;12.49;89.72
44457;BME280;30159;49.316;8.558;2023-04-19T07:05:52;100967.25;;;13.06;87.32
44457;BME280;30159;49.316;8.558;2023-04-19T07:08:21;100905.06;;;12.91;86.05
44457;BME280;30159;49.316;8.558;2023-04-19T07:10:47;100964.00;;;13.43;85.79
44457;BME280;30159;49.316;8.558;2023-04-19T07:13:14;100964.06;;;13.33;85.84
44457;BME280;30159;49.316;8.558;2023-04-19T07:15:40;100964.16;;;13.18;85.37
44457;BME280;30159;49.316;8.558;2023-04-19T07:18:07;100963.91;;;13.19;85.89
44457;BME280;30159;49.316;8.558;2023-04-19T07:20:34;100954.41;;;13.22;87.65
44457;BME280;30159;49.316;8.558;2023-04-19T07:23:02;100953.53;;;13.26;86.04
44457;BME280;30159;49.316;8.558;2023-04-19T07:25:29;100947.47;;;13.40;86.39
44457;BME280;30159;49.316;8.558;2023-04-19T07:27:55;100946.69;;;13.68;85.38
44457;BME280;30159;49.316;8.558;2023-04-19T07:30:22;100945.50;;;14.47;82.56
44457;BME280;30159;49.316;8.558;2023-04-19T07:32:49;100938.84;;;16.58;73.26
44457;BME280;30159;49.316;8.558;2023-04-19T07:35:17;100936.22;;;18.54;65.71
44457;BME280;30159;49.316;8.558;2023-04-19T07:37:44;100934.47;;;19.84;62.54
44457;BME280;30159;49.316;8.558;2023-04-19T07:40:13;100932.16;;;19.48;61.68
44457;BME280;30159;49.316;8.558;2023-04-19T07:42:39;100923.56;;;18.85;62.32
44457;BME280;30159;49.316;8.558;2023-04-19T07:45:06;100930.88;;;18.23;64.42
44457;BME280;30159;49.316;8.558;2023-04-19T07:47:33;100933.44;;;17.48;65.75
44457;BME280;30159;49.316;8.558;2023-04-19T07:49:59;100940.78;;;16.94;67.75
44457;BME280;30159;49.316;8.558;2023-04-19T07:52:26;100934.69;;;16.11;70.46
44457;BME280;30159;49.316;8.558;2023-04-19T07:54:52;100938.44;;;15.54;72.81
44457;BME280;30159;49.316;8.558;2023-04-19T07:57:20;100942.34;;;15.48;74.78
44457;BME280;30159;49.316;8.558;2023-04-19T07:59:47;100925.53;;;15.46;74.15
44457;BME280;30159;49.316;8.558;2023-04-19T08:02:13;100930.97;;;15.46;74.41
44457;BME280;30159;49.316;8.558;2023-04-19T08:04:44;100927.28;;;15.23;74.93
44457;BME280;30159;49.316;8.558;2023-04-19T08:07:12;100924.75;;;15.13;74.83
44457;BME280;30159;49.316;8.558;2023-04-19T08:09:38;100932.56;;;14.63;76.44
44457;BME280;30159;49.316;8.558;2023-04-19T08:12:06;100933.00;;;14.03;80.48
44457;BME280;30159;49.316;8.558;2023-04-19T08:14:34;100926.53;;;13.75;83.26
44457;BME280;30159;49.316;8.558;2023-04-19T08:17:03;100926.28;;;13.47;86.77
44457;BME280;30159;49.316;8.558;2023-04-19T08:19:29;100880.03;;;13.04;87.39
44457;BME280;30159;49.316;8.558;2023-04-19T08:21:56;100919.69;;;13.24;89.17
44457;BME280;30159;49.316;8.558;2023-04-19T08:24:23;100919.66;;;12.95;90.77
44457;BME280;30159;49.316;8.558;2023-04-19T08:26:49;100916.09;;;12.99;93.37
44457;BME280;30159;49.316;8.558;2023-04-19T08:29:18;100925.72;;;13.16;91.98
44457;BME280;30159;49.316;8.558;2023-04-19T08:31:47;100924.53;;;13.27;91.13
44457;BME280;30159;49.316;8.558;2023-04-19T08:34:14;100915.91;;;13.54;89.84
44457;BME280;30159;49.316;8.558;2023-04-19T08:36:40;100924.22;;;13.63;89.02
44457;BME280;30159;49.316;8.558;2023-04-19T08:39:07;100892.56;;;13.58;89.20
44457;BME280;30159;49.316;8.558;2023-04-19T08:41:34;100922.44;;;13.77;89.04
44457;BME280;30159;49.316;8.558;2023-04-19T08:44:02;100757.69;;;12.73;89.43
44457;BME280;30159;49.316;8.558;2023-04-19T08:46:29;100908.56;;;13.84;88.34
44457;BME280;30159;49.316;8.558;2023-04-19T08:48:58;100917.91;;;13.97;87.61
44457;BME280;30159;49.316;8.558;2023-04-19T08:51:26;100920.06;;;14.19;87.17
44457;BME280;30159;49.316;8.558;2023-04-19T08:53:55;100914.41;;;14.39;86.55
44457;BME280;30159;49.316;8.558;2023-04-19T08:56:22;100898.16;;;14.15;85.57
44457;BME280;30159;49.316;8.558;2023-04-19T08:58:48;100904.63;;;14.38;85.47
44457;BME280;30159;49.316;8.558;2023-04-19T09:01:15;100908.84;;;14.68;83.95
44457;BME280;30159;49.316;8.558;2023-04-19T09:03:42;100891.25;;;15.31;81.25
44457;BME280;30159;49.316;8.558;2023-04-19T09:06:11;100888.34;;;15.74;78.10
44457;BME280;30159;49.316;8.558;2023-04-19T09:08:38;100868.53;;;15.41;78.52
44457;BME280;30159;49.316;8.558;2023-04-19T09:11:05;100887.94;;;15.95;75.91
44457;BME280;30159;49.316;8.558;2023-04-19T09:13:31;100889.34;;;15.92;75.40
44457;BME280;30159;49.316;8.558;2023-04-19T09:16:00;100887.66;;;16.33;75.36
44457;BME280;30159;49.316;8.558;2023-04-19T09:18:29;100875.56;;;16.39;71.48
44457;BME280;30159;49.316;8.558;2023-04-19T09:20:55;100866.91;;;16.59;72.14
44457;BME280;30159;49.316;8.558;2023-04-19T09:23:24;100871.78;;;16.85;70.91
44457;BME280;30159;49.316;8.558;2023-04-19T09:25:53;100871.69;;;16.90;69.88
44457;BME280;30159;49.316;8.558;2023-04-19T09:28:20;100868.03;;;16.58;71.66
44457;BME280;30159;49.316;8.558;2023-04-19T09:30:47;100863.84;;;16.38;70.45
44457;BME280;30159;49.316;8.558;2023-04-19T09:33:30;100861.06;;;16.30;71.65
44457;BME280;30159;49.316;8.558;2023-04-19T09:35:58;100805.31;;;15.91;73.07
44457;BME280;30159;49.316;8.558;2023-04-19T09:38:26;100858.53;;;16.33;71.16
44457;BME280;30159;49.316;8.558;2023-04-19T09:41:04;100854.53;;;16.53;70.63
44457;BME280;30159;49.316;8.558;2023-04-19T09:43:32;100850.81;;;17.48;69.18
44457;BME280;30159;49.316;8.558;2023-04-19T09:45:58;100859.97;;;16.76;68.94
44457;BME280;30159;49.316;8.558;2023-04-19T09:48:25;100850.97;;;17.12;67.72
44457;BME280;30159;49.316;8.558;2023-04-19T09:50:53;100840.22;;;17.46;68.37
44457;BME280;30159;49.316;8.558;2023-04-19T09:53:21;100835.81;;;17.68;67.32
44457;BME280;30159;49.316;8.558;2023-04-19T09:55:50;100831.31;;;17.23;67.29
44457;BME280;30159;49.316;8.558;2023-04-19T09:58:17;100836.25;;;16.90;67.66
44457;BME280;30159;49.316;8.558;2023-04-19T10:00:45;100837.41;;;16.98;68.94
44457;BME280;30159;49.316;8.558;2023-04-19T10:03:13;100824.34;;;17.09;68.05
44457;BME280;30159;49.316;8.558;2023-04-19T10:05:41;100838.69;;;16.78;68.18
44457;BME280;30159;49.316;8.558;2023-04-19T10:08:09;100812.78;;;15.85;71.88
44457;BME280;30159;49.316;8.558;2023-04-19T10:10:38;100835.31;;;15.58;75.10
44457;BME280;30159;49.316;8.558;2023-04-19T10:13:09;100836.59;;;15.19;76.50
44457;BME280;30159;49.316;8.558;2023-04-19T10:15:36;100836.03;;;15.03;78.21
44457;BME280;30159;49.316;8.558;2023-04-19T10:18:04;100702.25;;;14.18;78.59
44457;BME280;30159;49.316;8.558;2023-04-19T10:20:35;100833.22;;;14.94;80.23
44457;BME280;30159;49.316;8.558;2023-04-19T10:23:05;100829.53;;;14.52;82.32
44457;BME280;30159;49.316;8.558;2023-04-19T10:25:35;100803.22;;;14.15;85.38
44457;BME280;30159;49.316;8.558;2023-04-19T10:28:02;100833.06;;;14.34;85.29
44457;BME280;30159;49.316;8.558;2023-04-19T10:30:30;100830.44;;;14.29;86.12
44457;BME280;30159;49.316;8.558;2023-04-19T10:32:58;100815.47;;;14.12;86.00
44457;BME280;30159;49.316;8.558;2023-04-19T10:35:28;100829.31;;;14.30;86.03
44457;BME280;30159;49.316;8.558;2023-04-19T10:38:04;100828.50;;;14.29;86.21
44457;BME280;30159;49.316;8.558;2023-04-19T10:40:55;100823.59;;;14.12;86.04
44457;BME280;30159;49.316;8.558;2023-04-19T10:43:25;100816.34;;;14.08;88.70
44457;BME280;30159;49.316;8.558;2023-04-19T10:45:54;100734.72;;;13.66;88.23
44457;BME280;30159;49.316;8.558;2023-04-19T10:48:31;100807.59;;;13.92;87.75
44457;BME280;30159;49.316;8.558;2023-04-19T10:51:00;100819.84;;;13.89;89.26
44457;BME280;30159;49.316;8.558;2023-04-19T10:53:52;100690.94;;;12.87;89.41
44457;BME280;30159;49.316;8.558;2023-04-19T10:56:21;100813.44;;;13.56;91.28
44457;BME280;30159;49.316;8.558;2023-04-19T10:59:14;100808.69;;;13.48;91.90
44457;BME280;30159;49.316;8.558;2023-04-19T11:01:50;100815.06;;;13.57;92.06
44457;BME280;30159;49.316;8.558;2023-04-19T11:04:18;100809.25;;;13.45;92.10
44457;BME280;30159;49.316;8.558;2023-04-19T11:07:02;100807.69;;;13.39;91.00
44457;BME280;30159;49.316;8.558;2023-04-19T11:09:30;100798.78;;;13.33;92.12
44457;BME280;30159;49.316;8.558;2023-04-19T11:12:00;100798.91;;;13.47;92.69
44457;BME280;30159;49.316;8.558;2023-04-19T11:14:32;100710.53;;;13.03;90.52
44457;BME280;30159;49.316;8.558;2023-04-19T11:17:03;100748.88;;;13.39;90.16
44457;BME280;30159;49.316;8.558;2023-04-19T11:19:41;100776.13;;;13.72;90.12
44457;BME280;30159;49.316;8.558;2023-04-19T11:22:08;100779.38;;;13.93;88.67
44457;BME280;30159;49.316;8.558;2023-04-19T11:24:34;100781.50;;;14.15;87.45
44457;BME280;30159;49.316;8.558;2023-04-19T11:27:06;100704.13;;;13.85;85.68
44457;BME280;30159;49.316;8.558;2023-04-19T11:29:33;100773.28;;;14.39;86.06
44457;BME280;30159;49.316;8.558;2023-04-19T11:32:01;100774.00;;;14.26;85.01
44457;BME280;30159;49.316;8.558;2023-04-19T11:34:27;100772.25;;;13.97;86.50
44457;BME280;30159;49.316;8.558;2023-04-19T11:36:54;100763.09;;;13.74;87.63
44457;BME280;30159;49.316;8.558;2023-04-19T11:39:21;100760.72;;;13.67;88.35
44457;BME280;30159;49.316;8.558;2023-04-19T11:41:47;100762.41;;;13.63;88.61
44457;BME280;30159;49.316;8.558;2023-04-19T11:44:15;100754.34;;;13.58;89.49
44457;BME280;30159;49.316;8.558;2023-04-19T11:47:01;100754.25;;;13.63;88.50
44457;BME280;30159;49.316;8.558;2023-04-19T11:49:30;100737.31;;;13.34;87.02
44457;BME280;30159;49.316;8.558;2023-04-19T11:51:58;100756.38;;;13.47;86.68
44457;BME280;30159;49.316;8.558;2023-04-19T11:54:25;100704.94;;;13.18;86.79
44457;BME280;30159;49.316;8.558;2023-04-19T11:56:59;100739.75;;;13.54;85.96
44457;BME280;30159;49.316;8.558;2023-04-19T11:59:27;100746.00;;;13.74;84.60
44457;BME280;30159;49.316;8.558;2023-04-19T12:01:53;100753.69;;;13.66;84.88
44457;BME280;30159;49.316;8.558;2023-04-19T12:04:22;100753.41;;;13.68;85.67
44457;BME280;30159;49.316;8.558;2023-04-19T12:06:55;100749.59;;;13.69;85.63
44457;BME280;30159;49.316;8.558;2023-04-19T12:09:23;100747.69;;;13.69;85.61
44457;BME280;30159;49.316;8.558;2023-04-19T12:11:50;100751.72;;;13.72;84.02
44457;BME280;30159;49.316;8.558;2023-04-19T12:14:18;100749.38;;;13.84;84.50
44457;BME280;30159;49.316;8.558;2023-04-19T12:17:02;100735.31;;;14.01;83.07
44457;BME280;30159;49.316;8.558;2023-04-19T12:19:34;100735.16;;;14.11;82.26
44457;BME280;30159;49.316;8.558;2023-04-19T12:22:07;100703.16;;;13.95;80.77
44457;BME280;30159;49.316;8.558;2023-04-19T12:24:33;100732.28;;;14.41;81.12
44457;BME280;30159;49.316;8.558;2023-04-19T12:27:00;100728.44;;;14.61;78.48
44457;BME280;30159;49.316;8.558;2023-04-19T12:29:26;100724.91;;;14.60;77.49
44457;BME280;30159;49.316;8.558;2023-04-19T12:31:53;100722.47;;;14.59;75.98
44457;BME280;30159;49.316;8.558;2023-04-19T12:34:20;100698.88;;;14.73;75.47
44457;BME280;30159;49.316;8.558;2023-04-19T12:36:47;100703.94;;;14.93;74.62
44457;BME280;30159;49.316;8.558;2023-04-19T12:39:14;100702.84;;;15.08;74.88
44457;BME280;30159;49.316;8.558;2023-04-19T12:41:40;100705.44;;;15.55;73.01
44457;BME280;30159;49.316;8.558;2023-04-19T12:44:07;100700.31;;;16.12;71.74
44457;BME280;30159;49.316;8.558;2023-04-19T12:46:34;100642.09;;;16.13;70.56
44457;BME280;30159;49.316;8.558;2023-04-19T12:49:00;100689.50;;;16.75;69.56
44457;BME280;30159;49.316;8.558;2023-04-19T12:51:27;100687.53;;;16.98;68.70
44457;BME280;30159;49.316;8.558;2023-04-19T12:53:55;100686.63;;;17.20;69.66